Chandler Field
KAXN : now visible

Airfield :











YOU CAN JOIN US ON...

 
LOGIN :

Register | Disclaimer

   EN    FR    IT 

 









Legend :    VFR   Marginal VFR   IFR   Intensive IFR   Very Intensive IFR
Visi :
Ceiling :
>= 8 km
>= 3000ft
5 to 8 km
1000 to 3000 ft
1500m to 5 km
500 to 1000 ft
800 to 1500m
200 to 500 ft
< 800m
< 200 ft
Symbols :   Thunderstorms  Fog  Heavy snow  Heavy precipitations  Wind > 20 kt






- Airport Elevation : 1425 ft


KAXN - Chandler Field

CURRENT METAR :
  • 280453Z AUTO 26004KT 10SM CLR 10/09 A2999 RMK AO2 SLP158 T01000089

EXPIRED METARs :
  • 280353Z AUTO 27004KT 10SM CLR 11/09 A2998 RMK AO2 SLP157 T01060089
  • 280253Z AUTO 00000KT 10SM FEW090 13/09 A2997 RMK AO2 SLP153 T01280089 51019
  • 280153Z AUTO 35006KT 10SM CLR 13/09 A2996 RMK AO2 SLP149 T01330089
  • 280053Z AUTO 36010KT 10SM FEW026 SCT033 BKN046 15/09 A2994 RMK AO2 SLP142 T01500094

TAF KAXN
Valid from the 28 at 00:00 until the 29 at 00:00 UTC


272320Z 2800/2824 35011KT P6SM SCT050
FM280300 33006KT P6SM BKN090
FM281200 32009KT P6SM SCT027 BKN060
FM281600 34012G20KT P6SM SCT040
KZMP FIR / North America



MET'MAP, your aeronautical weather chart ! - Copyright ORBIFLY December 2007 - Disclaimer

ORBIFLY MET'MAP TEAM :

Programming & Development : Alexandra Zaïnal
Original concept : Baudouin d'Aumeries
Technical & hardware support : Manuel Goepfert
Assistance : Marc-Olivier Méhu




SOURCES & CREDITS :

   NOAA       Earth
Advisory